sensor_id;sensor_type;location;lat;lon;timestamp;temperature;humidity
26037;DHT22;13810;48.376;10.944;2023-08-24T00:00:11;19.00;99.90
26037;DHT22;13810;48.376;10.944;2023-08-24T00:00:42;19.10;99.90
26037;DHT22;13810;48.376;10.944;2023-08-24T00:01:12;19.00;99.90
26037;DHT22;13810;48.376;10.944;2023-08-24T00:01:43;19.00;99.90
26037;DHT22;13810;48.376;10.944;2023-08-24T00:02:14;19.00;99.90
26037;DHT22;13810;48.376;10.944;2023-08-24T00:02:44;19.00;99.90
26037;DHT22;13810;48.376;10.944;2023-08-24T00:03:15;19.00;99.90
26037;DHT22;13810;48.376;10.944;2023-08-24T00:03:46;19.00;99.90
26037;DHT22;13810;48.376;10.944;2023-08-24T00:04:18;19.00;99.90
26037;DHT22;13810;48.376;10.944;2023-08-24T00:04:48;19.00;99.90
26037;DHT22;13810;48.376;10.944;2023-08-24T00:05:19;19.00;99.90
26037;DHT22;13810;48.376;10.944;2023-08-24T00:05:51;19.00;99.90
26037;DHT22;13810;48.376;10.944;2023-08-24T00:06:22;19.00;99.90
26037;DHT22;13810;48.376;10.944;2023-08-24T00:06:52;19.00;99.90
26037;DHT22;13810;48.376;10.944;2023-08-24T00:07:23;19.00;99.90
26037;DHT22;13810;48.376;10.944;2023-08-24T00:07:54;19.00;99.90
26037;DHT22;13810;48.376;10.944;2023-08-24T00:08:24;18.90;99.90
26037;DHT22;13810;48.376;10.944;2023-08-24T00:08:55;18.90;99.90
26037;DHT22;13810;48.376;10.944;2023-08-24T00:09:26;19.00;99.90
26037;DHT22;13810;48.376;10.944;2023-08-24T00:09:57;19.00;99.90
26037;DHT22;13810;48.376;10.944;2023-08-24T00:10:28;18.90;99.90
26037;DHT22;13810;48.376;10.944;2023-08-24T00:10:58;19.00;99.90
26037;DHT22;13810;48.376;10.944;2023-08-24T00:11:29;19.00;99.90
26037;DHT22;13810;48.376;10.944;2023-08-24T00:12:00;19.00;99.90
26037;DHT22;13810;48.376;10.944;2023-08-24T00:12:33;19.00;99.90
26037;DHT22;13810;48.376;10.944;2023-08-24T00:13:04;19.00;99.90
26037;DHT22;13810;48.376;10.944;2023-08-24T00:13:35;19.00;99.90
26037;DHT22;13810;48.376;10.944;2023-08-24T00:14:06;19.00;99.90
26037;DHT22;13810;48.376;10.944;2023-08-24T00:14:37;18.90;99.90
26037;DHT22;13810;48.376;10.944;2023-08-24T00:15:08;18.90;99.90
26037;DHT22;13810;48.376;10.944;2023-08-24T00:15:39;18.90;99.90
26037;DHT22;13810;48.376;10.944;2023-08-24T00:16:10;18.90;99.90
26037;DHT22;13810;48.376;10.944;2023-08-24T00:16:42;19.00;99.90
26037;DHT22;13810;48.376;10.944;2023-08-24T00:17:12;19.00;99.90
26037;DHT22;13810;48.376;10.944;2023-08-24T00:17:43;18.90;99.90
26037;DHT22;13810;48.376;10.944;2023-08-24T00:18:14;18.90;99.90
26037;DHT22;13810;48.376;10.944;2023-08-24T00:18:44;18.90;99.90
26037;DHT22;13810;48.376;10.944;2023-08-24T00:19:15;18.90;99.90
26037;DHT22;13810;48.376;10.944;2023-08-24T00:19:46;19.00;99.90
26037;DHT22;13810;48.376;10.944;2023-08-24T00:20:17;19.00;99.90
26037;DHT22;13810;48.376;10.944;2023-08-24T00:20:51;18.90;99.90
26037;DHT22;13810;48.376;10.944;2023-08-24T00:21:21;18.90;99.90
26037;DHT22;13810;48.376;10.944;2023-08-24T00:21:53;18.90;99.90
26037;DHT22;13810;48.376;10.944;2023-08-24T00:22:23;18.90;99.90
26037;DHT22;13810;48.376;10.944;2023-08-24T00:22:54;19.00;99.90
26037;DHT22;13810;48.376;10.944;2023-08-24T00:23:25;18.90;99.90
26037;DHT22;13810;48.376;10.944;2023-08-24T00:23:56;19.00;99.90
26037;DHT22;13810;48.376;10.944;2023-08-24T00:24:26;19.00;99.90
26037;DHT22;13810;48.376;10.944;2023-08-24T00:24:57;19.00;99.90
26037;DHT22;13810;48.376;10.944;2023-08-24T00:25:27;18.90;99.90
26037;DHT22;13810;48.376;10.944;2023-08-24T00:25:58;19.00;99.90
26037;DHT22;13810;48.376;10.944;2023-08-24T00:26:29;18.90;99.90
26037;DHT22;13810;48.376;10.944;2023-08-24T00:26:59;18.90;99.90
26037;DHT22;13810;48.376;10.944;2023-08-24T00:27:30;18.90;99.90
26037;DHT22;13810;48.376;10.944;2023-08-24T00:28:01;19.00;99.90
26037;DHT22;13810;48.376;10.944;2023-08-24T00:28:31;18.90;99.90
26037;DHT22;13810;48.376;10.944;2023-08-24T00:29:02;18.90;99.90
26037;DHT22;13810;48.376;10.944;2023-08-24T00:29:33;18.90;99.90
26037;DHT22;13810;48.376;10.944;2023-08-24T00:30:06;19.00;99.90
26037;DHT22;13810;48.376;10.944;2023-08-24T00:30:37;19.00;99.90
26037;DHT22;13810;48.376;10.944;2023-08-24T00:31:07;18.90;99.90
26037;DHT22;13810;48.376;10.944;2023-08-24T00:31:38;18.90;99.90
26037;DHT22;13810;48.376;10.944;2023-08-24T00:32:09;18.90;99.90
26037;DHT22;13810;48.376;10.944;2023-08-24T00:32:39;18.90;99.90
26037;DHT22;13810;48.376;10.944;2023-08-24T00:33:10;18.90;99.90
26037;DHT22;13810;48.376;10.944;2023-08-24T00:33:40;18.90;99.90
26037;DHT22;13810;48.376;10.944;2023-08-24T00:34:11;18.90;99.90
26037;DHT22;13810;48.376;10.944;2023-08-24T00:34:42;18.90;99.90
26037;DHT22;13810;48.376;10.944;2023-08-24T00:35:12;18.90;99.90
26037;DHT22;13810;48.376;10.944;2023-08-24T00:35:44;18.80;99.90
26037;DHT22;13810;48.376;10.944;2023-08-24T00:36:15;18.80;99.90
26037;DHT22;13810;48.376;10.944;2023-08-24T00:36:46;18.80;99.90
26037;DHT22;13810;48.376;10.944;2023-08-24T00:37:17;18.80;99.90
26037;DHT22;13810;48.376;10.944;2023-08-24T00:37:47;18.80;99.90
26037;DHT22;13810;48.376;10.944;2023-08-24T00:38:18;18.80;99.90
26037;DHT22;13810;48.376;10.944;2023-08-24T00:38:49;18.80;99.90
26037;DHT22;13810;48.376;10.944;2023-08-24T00:39:21;18.80;99.90
26037;DHT22;13810;48.376;10.944;2023-08-24T00:39:52;18.80;99.90
26037;DHT22;13810;48.376;10.944;2023-08-24T00:40:23;18.80;99.90
26037;DHT22;13810;48.376;10.944;2023-08-24T00:40:56;18.70;99.90
26037;DHT22;13810;48.376;10.944;2023-08-24T00:41:26;18.70;99.90
26037;DHT22;13810;48.376;10.944;2023-08-24T00:41:57;18.70;99.90
26037;DHT22;13810;48.376;10.944;2023-08-24T00:42:28;18.70;99.90
26037;DHT22;13810;48.376;10.944;2023-08-24T00:42:58;18.70;99.90
26037;DHT22;13810;48.376;10.944;2023-08-24T00:43:29;18.60;99.90
26037;DHT22;13810;48.376;10.944;2023-08-24T00:44:00;18.60;99.90
26037;DHT22;13810;48.376;10.944;2023-08-24T00:44:30;18.60;99.90
26037;DHT22;13810;48.376;10.944;2023-08-24T00:45:02;18.60;99.90
26037;DHT22;13810;48.376;10.944;2023-08-24T00:45:33;18.60;99.90
26037;DHT22;13810;48.376;10.944;2023-08-24T00:46:04;18.60;99.90
26037;DHT22;13810;48.376;10.944;2023-08-24T00:46:35;18.60;99.90
26037;DHT22;13810;48.376;10.944;2023-08-24T00:47:07;18.60;99.90
26037;DHT22;13810;48.376;10.944;2023-08-24T00:47:44;18.60;99.90
26037;DHT22;13810;48.376;10.944;2023-08-24T00:48:15;18.60;99.90
26037;DHT22;13810;48.376;10.944;2023-08-24T00:48:46;18.60;99.90
26037;DHT22;13810;48.376;10.944;2023-08-24T00:49:17;18.60;99.90
26037;DHT22;13810;48.376;10.944;2023-08-24T00:49:48;18.60;99.90
26037;DHT22;13810;48.376;10.944;2023-08-24T00:50:19;18.60;99.90
26037;DHT22;13810;48.376;10.944;2023-08-24T00:50:50;18.60;99.90
26037;DHT22;13810;48.376;10.944;2023-08-24T00:51:20;18.60;99.90
26037;DHT22;13810;48.376;10.944;2023-08-24T00:51:51;18.50;99.90
26037;DHT22;13810;48.376;10.944;2023-08-24T00:52:25;18.50;99.90
26037;DHT22;13810;48.376;10.944;2023-08-24T00:52:56;18.60;99.90
26037;DHT22;13810;48.376;10.944;2023-08-24T00:53:28;18.50;99.90
26037;DHT22;13810;48.376;10.944;2023-08-24T00:54:00;18.50;99.90
26037;DHT22;13810;48.376;10.944;2023-08-24T00:54:30;18.50;99.90
26037;DHT22;13810;48.376;10.944;2023-08-24T00:55:01;18.50;99.90
26037;DHT22;13810;48.376;10.944;2023-08-24T00:55:32;18.50;99.90
26037;DHT22;13810;48.376;10.944;2023-08-24T00:56:03;18.50;99.90
26037;DHT22;13810;48.376;10.944;2023-08-24T00:56:34;18.50;99.90
26037;DHT22;13810;48.376;10.944;2023-08-24T00:57:06;18.50;99.90
26037;DHT22;13810;48.376;10.944;2023-08-24T00:57:37;18.50;99.90
26037;DHT22;13810;48.376;10.944;2023-08-24T00:58:08;18.50;99.90
26037;DHT22;13810;48.376;10.944;2023-08-24T00:58:40;18.50;99.90
26037;DHT22;13810;48.376;10.944;2023-08-24T00:59:11;18.50;99.90
26037;DHT22;13810;48.376;10.944;2023-08-24T00:59:42;18.50;99.90
26037;DHT22;13810;48.376;10.944;2023-08-24T01:00:13;18.50;99.90
26037;DHT22;13810;48.376;10.944;2023-08-24T01:00:44;18.50;99.90
26037;DHT22;13810;48.376;10.944;2023-08-24T01:01:14;18.40;99.90
26037;DHT22;13810;48.376;10.944;2023-08-24T01:01:46;18.40;99.90
26037;DHT22;13810;48.376;10.944;2023-08-24T01:02:17;18.40;99.90
26037;DHT22;13810;48.376;10.944;2023-08-24T01:02:49;18.40;99.90
26037;DHT22;13810;48.376;10.944;2023-08-24T01:03:22;18.40;99.90
26037;DHT22;13810;48.376;10.944;2023-08-24T01:03:54;18.40;99.90
26037;DHT22;13810;48.376;10.944;2023-08-24T01:04:24;18.40;99.90
26037;DHT22;13810;48.376;10.944;2023-08-24T01:04:55;18.40;99.90
26037;DHT22;13810;48.376;10.944;2023-08-24T01:05:26;18.40;99.90
26037;DHT22;13810;48.376;10.944;2023-08-24T01:05:57;18.40;99.90
26037;DHT22;13810;48.376;10.944;2023-08-24T01:06:27;18.40;99.90
26037;DHT22;13810;48.376;10.944;2023-08-24T01:06:58;18.40;99.90
26037;DHT22;13810;48.376;10.944;2023-08-24T01:07:29;18.40;99.90
26037;DHT22;13810;48.376;10.944;2023-08-24T01:08:00;18.40;99.90
26037;DHT22;13810;48.376;10.944;2023-08-24T01:08:30;18.40;99.90
26037;DHT22;13810;48.376;10.944;2023-08-24T01:09:01;18.30;99.90
26037;DHT22;13810;48.376;10.944;2023-08-24T01:09:31;18.30;99.90
26037;DHT22;13810;48.376;10.944;2023-08-24T01:10:03;18.30;99.90
26037;DHT22;13810;48.376;10.944;2023-08-24T01:10:44;18.30;99.90
26037;DHT22;13810;48.376;10.944;2023-08-24T01:11:50;18.30;99.90
26037;DHT22;13810;48.376;10.944;2023-08-24T01:15:04;18.30;99.90
26037;DHT22;13810;48.376;10.944;2023-08-24T01:15:51;18.30;99.90
26037;DHT22;13810;48.376;10.944;2023-08-24T01:16:28;18.30;99.90
26037;DHT22;13810;48.376;10.944;2023-08-24T01:17:01;18.30;99.90
26037;DHT22;13810;48.376;10.944;2023-08-24T01:17:35;18.30;99.90
26037;DHT22;13810;48.376;10.944;2023-08-24T01:18:13;18.20;99.90
26037;DHT22;13810;48.376;10.944;2023-08-24T01:18:46;18.20;99.90
26037;DHT22;13810;48.376;10.944;2023-08-24T01:19:46;18.20;99.90
26037;DHT22;13810;48.376;10.944;2023-08-24T01:20:18;18.20;99.90
26037;DHT22;13810;48.376;10.944;2023-08-24T01:20:49;18.20;99.90
26037;DHT22;13810;48.376;10.944;2023-08-24T01:21:20;18.20;99.90
26037;DHT22;13810;48.376;10.944;2023-08-24T01:21:54;18.20;99.90
26037;DHT22;13810;48.376;10.944;2023-08-24T01:23:07;18.20;99.90
26037;DHT22;13810;48.376;10.944;2023-08-24T01:24:00;18.20;99.90
26037;DHT22;13810;48.376;10.944;2023-08-24T01:24:40;18.20;99.90
26037;DHT22;13810;48.376;10.944;2023-08-24T01:25:16;18.10;99.90
26037;DHT22;13810;48.376;10.944;2023-08-24T01:25:53;18.10;99.90
26037;DHT22;13810;48.376;10.944;2023-08-24T01:26:24;18.20;99.90
26037;DHT22;13810;48.376;10.944;2023-08-24T01:26:55;18.10;99.90
26037;DHT22;13810;48.376;10.944;2023-08-24T01:27:28;18.10;99.90
26037;DHT22;13810;48.376;10.944;2023-08-24T01:27:59;18.10;99.90
26037;DHT22;13810;48.376;10.944;2023-08-24T01:28:32;18.10;99.90
26037;DHT22;13810;48.376;10.944;2023-08-24T01:29:04;18.10;99.90
26037;DHT22;13810;48.376;10.944;2023-08-24T01:29:35;18.10;99.90
26037;DHT22;13810;48.376;10.944;2023-08-24T01:30:07;18.10;99.90
26037;DHT22;13810;48.376;10.944;2023-08-24T01:30:38;18.10;99.90
26037;DHT22;13810;48.376;10.944;2023-08-24T01:31:09;18.10;99.90
26037;DHT22;13810;48.376;10.944;2023-08-24T01:31:40;18.10;99.90
26037;DHT22;13810;48.376;10.944;2023-08-24T01:32:10;18.10;99.90
26037;DHT22;13810;48.376;10.944;2023-08-24T01:32:42;18.10;99.90
26037;DHT22;13810;48.376;10.944;2023-08-24T01:33:13;18.10;99.90
26037;DHT22;13810;48.376;10.944;2023-08-24T01:33:45;18.10;99.90
26037;DHT22;13810;48.376;10.944;2023-08-24T01:34:15;18.10;99.90
26037;DHT22;13810;48.376;10.944;2023-08-24T01:34:46;18.10;99.90
26037;DHT22;13810;48.376;10.944;2023-08-24T01:35:17;18.10;99.90
26037;DHT22;13810;48.376;10.944;2023-08-24T01:35:47;18.10;99.90
26037;DHT22;13810;48.376;10.944;2023-08-24T01:36:18;18.10;99.90
26037;DHT22;13810;48.376;10.944;2023-08-24T01:36:50;18.10;99.90
26037;DHT22;13810;48.376;10.944;2023-08-24T01:37:21;18.10;99.90
26037;DHT22;13810;48.376;10.944;2023-08-24T01:37:51;18.10;99.90
26037;DHT22;13810;48.376;10.944;2023-08-24T01:38:22;18.10;99.90
26037;DHT22;13810;48.376;10.944;2023-08-24T01:38:59;18.00;99.90
26037;DHT22;13810;48.376;10.944;2023-08-24T01:39:50;18.00;99.90
26037;DHT22;13810;48.376;10.944;2023-08-24T01:40:29;18.00;99.90
26037;DHT22;13810;48.376;10.944;2023-08-24T01:41:41;18.10;99.90
26037;DHT22;13810;48.376;10.944;2023-08-24T01:42:18;18.10;99.90
26037;DHT22;13810;48.376;10.944;2023-08-24T01:43:02;18.10;99.90
26037;DHT22;13810;48.376;10.944;2023-08-24T01:43:35;18.10;99.90
26037;DHT22;13810;48.376;10.944;2023-08-24T01:44:06;18.10;99.90
26037;DHT22;13810;48.376;10.944;2023-08-24T01:44:39;18.00;99.90
26037;DHT22;13810;48.376;10.944;2023-08-24T01:45:12;18.00;99.90
26037;DHT22;13810;48.376;10.944;2023-08-24T01:45:44;18.00;99.90
26037;DHT22;13810;48.376;10.944;2023-08-24T01:46:16;18.00;99.90
26037;DHT22;13810;48.376;10.944;2023-08-24T01:46:49;18.00;99.90
26037;DHT22;13810;48.376;10.944;2023-08-24T01:47:21;18.00;99.90
26037;DHT22;13810;48.376;10.944;2023-08-24T01:47:54;18.00;99.90
26037;DHT22;13810;48.376;10.944;2023-08-24T01:48:25;18.00;99.90
26037;DHT22;13810;48.376;10.944;2023-08-24T01:48:57;18.00;99.90
26037;DHT22;13810;48.376;10.944;2023-08-24T01:49:29;18.00;99.90
26037;DHT22;13810;48.376;10.944;2023-08-24T01:50:01;18.00;99.90
26037;DHT22;13810;48.376;10.944;2023-08-24T01:50:33;18.00;99.90
26037;DHT22;13810;48.376;10.944;2023-08-24T01:51:05;18.00;99.90
26037;DHT22;13810;48.376;10.944;2023-08-24T01:51:36;18.00;99.90
26037;DHT22;13810;48.376;10.944;2023-08-24T01:52:08;18.00;99.90
26037;DHT22;13810;48.376;10.944;2023-08-24T01:52:39;18.00;99.90
26037;DHT22;13810;48.376;10.944;2023-08-24T01:53:10;18.00;99.90
26037;DHT22;13810;48.376;10.944;2023-08-24T01:53:41;18.00;99.90
26037;DHT22;13810;48.376;10.944;2023-08-24T01:54:12;18.00;99.90
26037;DHT22;13810;48.376;10.944;2023-08-24T01:54:43;18.00;99.90
26037;DHT22;13810;48.376;10.944;2023-08-24T01:55:15;18.00;99.90
26037;DHT22;13810;48.376;10.944;2023-08-24T01:55:47;18.00;99.90
26037;DHT22;13810;48.376;10.944;2023-08-24T01:56:18;18.00;99.90
26037;DHT22;13810;48.376;10.944;2023-08-24T01:56:49;18.00;99.90
26037;DHT22;13810;48.376;10.944;2023-08-24T01:57:19;18.00;99.90
26037;DHT22;13810;48.376;10.944;2023-08-24T01:57:50;18.00;99.90
26037;DHT22;13810;48.376;10.944;2023-08-24T01:58:21;18.00;99.90
26037;DHT22;13810;48.376;10.944;2023-08-24T01:58:51;18.00;99.90
26037;DHT22;13810;48.376;10.944;2023-08-24T01:59:22;18.00;99.90
26037;DHT22;13810;48.376;10.944;2023-08-24T01:59:52;18.10;99.90
26037;DHT22;13810;48.376;10.944;2023-08-24T02:00:23;18.00;99.90
26037;DHT22;13810;48.376;10.944;2023-08-24T02:00:54;18.10;99.90
26037;DHT22;13810;48.376;10.944;2023-08-24T02:01:24;18.00;99.90
26037;DHT22;13810;48.376;10.944;2023-08-24T02:01:55;18.00;99.90
26037;DHT22;13810;48.376;10.944;2023-08-24T02:02:26;18.00;99.90
26037;DHT22;13810;48.376;10.944;2023-08-24T02:02:57;18.00;99.90
26037;DHT22;13810;48.376;10.944;2023-08-24T02:03:27;18.00;99.90
26037;DHT22;13810;48.376;10.944;2023-08-24T02:03:58;18.00;99.90
26037;DHT22;13810;48.376;10.944;2023-08-24T02:04:30;18.00;99.90
26037;DHT22;13810;48.376;10.944;2023-08-24T02:05:01;18.00;99.90
26037;DHT22;13810;48.376;10.944;2023-08-24T02:05:32;18.00;99.90
26037;DHT22;13810;48.376;10.944;2023-08-24T02:06:03;18.00;99.90
26037;DHT22;13810;48.376;10.944;2023-08-24T02:06:35;17.90;99.90
26037;DHT22;13810;48.376;10.944;2023-08-24T02:07:05;17.90;99.90
26037;DHT22;13810;48.376;10.944;2023-08-24T02:07:38;18.00;99.90
26037;DHT22;13810;48.376;10.944;2023-08-24T02:08:09;17.90;99.90
26037;DHT22;13810;48.376;10.944;2023-08-24T02:08:39;17.90;99.90
26037;DHT22;13810;48.376;10.944;2023-08-24T02:09:10;17.90;99.90
26037;DHT22;13810;48.376;10.944;2023-08-24T02:09:41;17.90;99.90
26037;DHT22;13810;48.376;10.944;2023-08-24T02:10:11;17.90;99.90
26037;DHT22;13810;48.376;10.944;2023-08-24T02:10:42;17.90;99.90
26037;DHT22;13810;48.376;10.944;2023-08-24T02:11:13;17.90;99.90
26037;DHT22;13810;48.376;10.944;2023-08-24T02:11:43;17.90;99.90
26037;DHT22;13810;48.376;10.944;2023-08-24T02:12:14;17.90;99.90
26037;DHT22;13810;48.376;10.944;2023-08-24T02:12:45;17.90;99.90
26037;DHT22;13810;48.376;10.944;2023-08-24T02:13:15;17.90;99.90
26037;DHT22;13810;48.376;10.944;2023-08-24T02:13:46;17.90;99.90
26037;DHT22;13810;48.376;10.944;2023-08-24T02:14:16;17.90;99.90
26037;DHT22;13810;48.376;10.944;2023-08-24T02:14:47;17.80;99.90
26037;DHT22;13810;48.376;10.944;2023-08-24T02:15:18;17.80;99.90
26037;DHT22;13810;48.376;10.944;2023-08-24T02:15:48;17.80;99.90
26037;DHT22;13810;48.376;10.944;2023-08-24T02:16:19;17.80;99.90
26037;DHT22;13810;48.376;10.944;2023-08-24T02:16:50;17.80;99.90
26037;DHT22;13810;48.376;10.944;2023-08-24T02:17:20;17.80;99.90
26037;DHT22;13810;48.376;10.944;2023-08-24T02:17:51;17.80;99.90
26037;DHT22;13810;48.376;10.944;2023-08-24T02:18:22;17.80;99.90
26037;DHT22;13810;48.376;10.944;2023-08-24T02:18:52;17.70;99.90
26037;DHT22;13810;48.376;10.944;2023-08-24T02:19:23;17.70;99.90
26037;DHT22;13810;48.376;10.944;2023-08-24T02:19:55;17.70;99.90
26037;DHT22;13810;48.376;10.944;2023-08-24T02:20:25;17.70;99.90
26037;DHT22;13810;48.376;10.944;2023-08-24T02:20:56;17.70;99.90
26037;DHT22;13810;48.376;10.944;2023-08-24T02:21:27;17.70;99.90
26037;DHT22;13810;48.376;10.944;2023-08-24T02:21:57;17.70;99.90
26037;DHT22;13810;48.376;10.944;2023-08-24T02:22:29;17.70;99.90
26037;DHT22;13810;48.376;10.944;2023-08-24T02:23:00;17.70;99.90
26037;DHT22;13810;48.376;10.944;2023-08-24T02:23:31;17.70;99.90
26037;DHT22;13810;48.376;10.944;2023-08-24T02:24:02;17.70;99.90
26037;DHT22;13810;48.376;10.944;2023-08-24T02:24:32;17.70;99.90
26037;DHT22;13810;48.376;10.944;2023-08-24T02:25:04;17.70;99.90
26037;DHT22;13810;48.376;10.944;2023-08-24T02:25:42;17.70;99.90
26037;DHT22;13810;48.376;10.944;2023-08-24T02:26:13;17.70;99.90
26037;DHT22;13810;48.376;10.944;2023-08-24T02:26:43;17.70;99.90
26037;DHT22;13810;48.376;10.944;2023-08-24T02:27:14;17.70;99.90
26037;DHT22;13810;48.376;10.944;2023-08-24T02:27:45;17.70;99.90
26037;DHT22;13810;48.376;10.944;2023-08-24T02:28:15;17.70;99.90
26037;DHT22;13810;48.376;10.944;2023-08-24T02:28:46;17.70;99.90
26037;DHT22;13810;48.376;10.944;2023-08-24T02:29:16;17.70;99.90
26037;DHT22;13810;48.376;10.944;2023-08-24T02:29:47;17.70;99.90
26037;DHT22;13810;48.376;10.944;2023-08-24T02:30:18;17.70;99.90
26037;DHT22;13810;48.376;10.944;2023-08-24T02:30:48;17.70;99.90
26037;DHT22;13810;48.376;10.944;2023-08-24T02:31:19;17.70;99.90
26037;DHT22;13810;48.376;10.944;2023-08-24T02:31:50;17.70;99.90
26037;DHT22;13810;48.376;10.944;2023-08-24T02:32:21;17.70;99.90
26037;DHT22;13810;48.376;10.944;2023-08-24T02:32:52;17.70;99.90
26037;DHT22;13810;48.376;10.944;2023-08-24T02:33:22;17.60;99.90
26037;DHT22;13810;48.376;10.944;2023-08-24T02:33:53;17.60;99.90
26037;DHT22;13810;48.376;10.944;2023-08-24T02:34:23;17.60;99.90
26037;DHT22;13810;48.376;10.944;2023-08-24T02:34:54;17.60;99.90
26037;DHT22;13810;48.376;10.944;2023-08-24T02:35:25;17.60;99.90
26037;DHT22;13810;48.376;10.944;2023-08-24T02:35:55;17.60;99.90
26037;DHT22;13810;48.376;10.944;2023-08-24T02:36:26;17.60;99.90
26037;DHT22;13810;48.376;10.944;2023-08-24T02:36:58;17.60;99.90
26037;DHT22;13810;48.376;10.944;2023-08-24T02:37:28;17.60;99.90
26037;DHT22;13810;48.376;10.944;2023-08-24T02:37:59;17.60;99.90
26037;DHT22;13810;48.376;10.944;2023-08-24T02:38:30;17.60;99.90
26037;DHT22;13810;48.376;10.944;2023-08-24T02:39:01;17.60;99.90
26037;DHT22;13810;48.376;10.944;2023-08-24T02:39:31;17.60;99.90
26037;DHT22;13810;48.376;10.944;2023-08-24T02:40:02;17.60;99.90
26037;DHT22;13810;48.376;10.944;2023-08-24T02:40:33;17.60;99.90
26037;DHT22;13810;48.376;10.944;2023-08-24T02:41:05;17.60;99.90
26037;DHT22;13810;48.376;10.944;2023-08-24T02:41:36;17.60;99.90
26037;DHT22;13810;48.376;10.944;2023-08-24T02:42:07;17.60;99.90
26037;DHT22;13810;48.376;10.944;2023-08-24T02:42:38;17.60;99.90
26037;DHT22;13810;48.376;10.944;2023-08-24T02:43:08;17.60;99.90
26037;DHT22;13810;48.376;10.944;2023-08-24T02:43:39;17.60;99.90
26037;DHT22;13810;48.376;10.944;2023-08-24T02:44:10;17.60;99.90
26037;DHT22;13810;48.376;10.944;2023-08-24T02:44:40;17.50;99.90
26037;DHT22;13810;48.376;10.944;2023-08-24T02:45:11;17.50;99.90
26037;DHT22;13810;48.376;10.944;2023-08-24T02:45:41;17.50;99.90
26037;DHT22;13810;48.376;10.944;2023-08-24T02:46:12;17.60;99.90
26037;DHT22;13810;48.376;10.944;2023-08-24T02:46:48;17.60;99.90
26037;DHT22;13810;48.376;10.944;2023-08-24T02:47:19;17.50;99.90
26037;DHT22;13810;48.376;10.944;2023-08-24T02:47:49;17.50;99.90
26037;DHT22;13810;48.376;10.944;2023-08-24T02:48:20;17.50;99.90
26037;DHT22;13810;48.376;10.944;2023-08-24T02:48:51;17.50;99.90
26037;DHT22;13810;48.376;10.944;2023-08-24T02:49:21;17.50;99.90
26037;DHT22;13810;48.376;10.944;2023-08-24T02:49:52;17.50;99.90
26037;DHT22;13810;48.376;10.944;2023-08-24T02:50:23;17.50;99.90
26037;DHT22;13810;48.376;10.944;2023-08-24T02:50:53;17.50;99.90
26037;DHT22;13810;48.376;10.944;2023-08-24T02:51:24;17.50;99.90
26037;DHT22;13810;48.376;10.944;2023-08-24T02:51:54;17.50;99.90
26037;DHT22;13810;48.376;10.944;2023-08-24T02:52:25;17.40;99.90
26037;DHT22;13810;48.376;10.944;2023-08-24T02:52:56;17.40;99.90
26037;DHT22;13810;48.376;10.944;2023-08-24T02:53:29;17.40;99.90
26037;DHT22;13810;48.376;10.944;2023-08-24T02:53:59;17.40;99.90
26037;DHT22;13810;48.376;10.944;2023-08-24T02:54:30;17.40;99.90
26037;DHT22;13810;48.376;10.944;2023-08-24T02:55:00;17.40;99.90
26037;DHT22;13810;48.376;10.944;2023-08-24T02:55:32;17.40;99.90
26037;DHT22;13810;48.376;10.944;2023-08-24T02:56:03;17.40;99.90
26037;DHT22;13810;48.376;10.944;2023-08-24T02:56:34;17.40;99.90
26037;DHT22;13810;48.376;10.944;2023-08-24T02:57:04;17.40;99.90
26037;DHT22;13810;48.376;10.944;2023-08-24T02:57:35;17.40;99.90
26037;DHT22;13810;48.376;10.944;2023-08-24T02:58:06;17.40;99.90
26037;DHT22;13810;48.376;10.944;2023-08-24T02:58:36;17.40;99.90
26037;DHT22;13810;48.376;10.944;2023-08-24T02:59:07;17.40;99.90
26037;DHT22;13810;48.376;10.944;2023-08-24T02:59:37;17.40;99.90
26037;DHT22;13810;48.376;10.944;2023-08-24T03:00:09;17.40;99.90
26037;DHT22;13810;48.376;10.944;2023-08-24T03:00:40;17.40;99.90
26037;DHT22;13810;48.376;10.944;2023-08-24T03:01:10;17.40;99.90
26037;DHT22;13810;48.376;10.944;2023-08-24T03:01:41;17.40;99.90
26037;DHT22;13810;48.376;10.944;2023-08-24T03:02:12;17.40;99.90
26037;DHT22;13810;48.376;10.944;2023-08-24T03:02:42;17.40;99.90
26037;DHT22;13810;48.376;10.944;2023-08-24T03:03:16;17.40;99.90
26037;DHT22;13810;48.376;10.944;2023-08-24T03:03:47;17.40;99.90
26037;DHT22;13810;48.376;10.944;2023-08-24T03:04:17;17.40;99.90
26037;DHT22;13810;48.376;10.944;2023-08-24T03:04:48;17.40;99.90
26037;DHT22;13810;48.376;10.944;2023-08-24T03:05:19;17.40;99.90
26037;DHT22;13810;48.376;10.944;2023-08-24T03:06:00;17.40;99.90
26037;DHT22;13810;48.376;10.944;2023-08-24T03:06:31;17.40;99.90
26037;DHT22;13810;48.376;10.944;2023-08-24T03:07:02;17.40;99.90
26037;DHT22;13810;48.376;10.944;2023-08-24T03:07:32;17.40;99.90
26037;DHT22;13810;48.376;10.944;2023-08-24T03:08:03;17.40;99.90
26037;DHT22;13810;48.376;10.944;2023-08-24T03:08:34;17.40;99.90
26037;DHT22;13810;48.376;10.944;2023-08-24T03:09:06;17.40;99.90
26037;DHT22;13810;48.376;10.944;2023-08-24T03:09:36;17.40;99.90
26037;DHT22;13810;48.376;10.944;2023-08-24T03:10:07;17.40;99.90
26037;DHT22;13810;48.376;10.944;2023-08-24T03:10:38;17.40;99.90
26037;DHT22;13810;48.376;10.944;2023-08-24T03:11:09;17.40;99.90
26037;DHT22;13810;48.376;10.944;2023-08-24T03:11:40;17.40;99.90
26037;DHT22;13810;48.376;10.944;2023-08-24T03:12:10;17.40;99.90
26037;DHT22;13810;48.376;10.944;2023-08-24T03:12:41;17.40;99.90
26037;DHT22;13810;48.376;10.944;2023-08-24T03:13:13;17.40;99.90
26037;DHT22;13810;48.376;10.944;2023-08-24T03:13:43;17.40;99.90
26037;DHT22;13810;48.376;10.944;2023-08-24T03:14:14;17.40;99.90
26037;DHT22;13810;48.376;10.944;2023-08-24T03:14:45;17.40;99.90
26037;DHT22;13810;48.376;10.944;2023-08-24T03:15:16;17.40;99.90
26037;DHT22;13810;48.376;10.944;2023-08-24T03:15:46;17.40;99.90
26037;DHT22;13810;48.376;10.944;2023-08-24T03:16:17;17.40;99.90
26037;DHT22;13810;48.376;10.944;2023-08-24T03:16:48;17.40;99.90
26037;DHT22;13810;48.376;10.944;2023-08-24T03:17:19;17.40;99.90
26037;DHT22;13810;48.376;10.944;2023-08-24T03:17:49;17.40;99.90
26037;DHT22;13810;48.376;10.944;2023-08-24T03:18:20;17.40;99.90
26037;DHT22;13810;48.376;10.944;2023-08-24T03:18:51;17.40;99.90
26037;DHT22;13810;48.376;10.944;2023-08-24T03:19:21;17.40;99.90
26037;DHT22;13810;48.376;10.944;2023-08-24T03:19:52;17.40;99.90
26037;DHT22;13810;48.376;10.944;2023-08-24T03:20:23;17.40;99.90